Time;durP1;ratioP1;P1;durP2;ratioP2;P2;SDS_P1;SDS_P2;PMS_P1;PMS_P2;Temp;Humidity;BMP_temperature;BMP_pressure;BME280_temperature;BME280_humidity;BME280_pressure;Samples;Min_cycle;Max_cycle;Signal;HPM_P1;HPM_P2
2022/01/14 00:01:52;;;;;;;99.03;26.35;;;6.10;99.90;;;;;;4851864;29;20072;-86
2022/01/14 00:04:18;;;;;;;97.03;26.33;;;6.10;99.90;;;;;;4862642;29;20096;-85
2022/01/14 00:06:44;;;;;;;91.28;26.85;;;6.10;99.90;;;;;;4862573;29;20052;-84
2022/01/14 00:09:11;;;;;;;90.97;25.60;;;6.00;99.90;;;;;;4861836;29;20084;-85
2022/01/14 00:11:46;;;;;;;98.85;28.05;;;6.00;99.90;;;;;;4862727;29;20622;-86
2022/01/14 00:16:42;;;;;;;90.07;27.60;;;6.10;99.90;;;;;;4878006;29;20556;-84
2022/01/14 00:19:07;;;;;;;100.65;27.55;;;6.10;99.90;;;;;;4862703;29;20052;-85
2022/01/14 00:21:35;;;;;;;106.15;27.52;;;6.00;99.90;;;;;;4862447;29;20074;-85
2022/01/14 00:24:07;;;;;;;99.75;27.88;;;5.90;99.90;;;;;;4863565;29;20080;-85
2022/01/14 00:32:26;;;;;;;103.70;27.88;;;6.00;99.90;;;;;;4858946;29;20671;-85
2022/01/14 00:34:51;;;;;;;102.55;27.48;;;6.00;99.90;;;;;;4844096;29;20071;-85
2022/01/14 00:37:17;;;;;;;92.30;26.55;;;6.10;99.90;;;;;;4843700;29;20555;-85
2022/01/14 00:39:43;;;;;;;101.97;30.05;;;6.20;99.90;;;;;;4858764;29;20092;-85
2022/01/14 00:42:10;;;;;;;92.03;27.63;;;6.10;99.90;;;;;;4855701;29;20045;-85
2022/01/14 00:44:36;;;;;;;96.15;26.58;;;6.10;99.90;;;;;;4862178;29;20469;-84
2022/01/14 00:47:04;;;;;;;104.40;28.65;;;6.10;99.90;;;;;;4862058;29;20415;-85
2022/01/14 00:49:29;;;;;;;109.38;28.08;;;6.10;99.90;;;;;;4877568;29;20577;-85
2022/01/14 00:51:55;;;;;;;93.75;26.77;;;6.10;99.90;;;;;;4861350;29;20045;-85
2022/01/14 00:54:21;;;;;;;114.57;27.63;;;6.20;99.90;;;;;;4877246;29;20041;-85
2022/01/14 00:57:01;;;;;;;110.53;28.02;;;6.10;99.90;;;;;;4861633;29;20131;-84
2022/01/14 00:59:27;;;;;;;112.32;26.70;;;6.00;99.90;;;;;;4861715;29;20507;-85
2022/01/14 01:01:56;;;;;;;95.63;26.65;;;6.00;99.90;;;;;;4861290;29;20069;-85
2022/01/14 01:04:31;;;;;;;113.63;28.20;;;6.10;99.90;;;;;;4876614;29;20416;-85
2022/01/14 01:06:59;;;;;;;103.35;27.35;;;6.00;99.90;;;;;;4861293;29;20081;-85
2022/01/14 01:09:25;;;;;;;119.03;28.73;;;5.90;99.90;;;;;;4877064;29;20415;-85
2022/01/14 01:12:18;;;;;;;110.30;28.33;;;6.00;99.90;;;;;;4861865;29;20480;-85
2022/01/14 01:15:04;;;;;;;109.50;29.63;;;6.00;99.90;;;;;;4876365;29;20078;-85
2022/01/14 01:17:29;;;;;;;106.70;27.58;;;5.90;99.90;;;;;;4861618;29;20049;-85
2022/01/14 01:19:55;;;;;;;115.88;29.27;;;5.90;99.90;;;;;;4861054;29;20737;-85
2022/01/14 01:22:21;;;;;;;113.70;29.90;;;5.90;99.90;;;;;;4860748;29;20036;-84
2022/01/14 01:24:46;;;;;;;113.35;28.02;;;5.90;99.90;;;;;;4857014;29;20049;-85
2022/01/14 01:27:14;;;;;;;107.80;29.25;;;5.90;99.90;;;;;;4868113;29;20052;-84
2022/01/14 01:32:07;;;;;;;107.38;30.33;;;5.90;99.90;;;;;;4872913;29;20064;-84
2022/01/14 01:34:32;;;;;;;102.93;29.02;;;5.80;99.90;;;;;;4860814;29;20051;-84
2022/01/14 01:37:00;;;;;;;89.35;29.27;;;5.90;99.90;;;;;;4860529;29;20135;-85
2022/01/14 01:39:28;;;;;;;104.28;28.83;;;5.90;99.90;;;;;;4861336;29;20048;-84
2022/01/14 01:41:57;;;;;;;102.53;28.52;;;6.00;99.90;;;;;;4861214;29;20074;-85
2022/01/14 01:44:24;;;;;;;101.97;29.30;;;6.00;99.90;;;;;;4861279;29;20511;-84
2022/01/14 01:46:52;;;;;;;97.35;29.15;;;6.00;99.90;;;;;;4861397;29;20444;-85
2022/01/14 01:49:28;;;;;;;97.28;29.33;;;6.10;99.90;;;;;;4861365;29;20048;-85
2022/01/14 01:51:54;;;;;;;83.97;27.63;;;6.10;99.90;;;;;;4861428;29;20044;-84
2022/01/14 01:54:21;;;;;;;93.93;29.02;;;6.10;99.90;;;;;;4860812;29;20415;-84
2022/01/14 01:56:49;;;;;;;97.53;29.40;;;6.10;99.90;;;;;;4842383;29;20056;-84
2022/01/14 01:59:16;;;;;;;94.57;29.55;;;6.10;99.90;;;;;;4858105;29;20180;-85
2022/01/14 02:01:42;;;;;;;106.75;29.35;;;6.10;99.90;;;;;;4859651;29;20041;-85
2022/01/14 02:04:07;;;;;;;92.07;28.25;;;6.10;99.90;;;;;;4874547;29;20514;-85
2022/01/14 02:06:37;;;;;;;92.65;29.42;;;6.10;99.90;;;;;;4860975;29;20059;-85
2022/01/14 02:09:03;;;;;;;99.75;30.33;;;6.20;99.90;;;;;;4860843;29;20049;-85
2022/01/14 02:11:28;;;;;;;100.90;31.85;;;6.10;99.90;;;;;;4861350;29;20511;-85
2022/01/14 02:13:57;;;;;;;88.35;28.70;;;6.10;99.90;;;;;;4861152;29;20084;-84
2022/01/14 02:16:58;;;;;;;101.07;30.70;;;6.10;99.90;;;;;;4861053;29;20078;-85
2022/01/14 02:19:30;;;;;;;92.93;29.00;;;6.10;99.90;;;;;;4875104;29;20053;-84
2022/01/14 02:22:12;;;;;;;91.45;29.98;;;6.10;99.90;;;;;;4860919;29;20044;-85
2022/01/14 02:27:06;;;;;;;91.55;29.40;;;6.20;99.90;;;;;;4876379;29;20107;-85
2022/01/14 02:29:32;;;;;;;83.97;30.35;;;6.30;99.90;;;;;;4876010;29;20051;-85
2022/01/14 02:31:58;;;;;;;97.93;31.58;;;6.30;99.90;;;;;;4863605;29;20044;-84
2022/01/14 02:34:24;;;;;;;97.25;31.00;;;6.20;99.90;;;;;;4863924;29;20140;-84
2022/01/14 02:36:51;;;;;;;98.78;31.50;;;6.20;99.90;;;;;;4863999;29;20083;-84
2022/01/14 02:39:18;;;;;;;95.22;30.45;;;6.20;99.90;;;;;;4864008;29;20467;-84
2022/01/14 02:41:46;;;;;;;88.47;31.58;;;6.20;99.90;;;;;;4863906;29;20051;-85
2022/01/14 02:44:18;;;;;;;96.35;32.38;;;6.20;99.90;;;;;;4864455;29;20147;-84
2022/01/14 02:46:52;;;;;;;100.57;30.63;;;6.20;99.90;;;;;;4863861;29;20100;-84
2022/01/14 02:49:19;;;;;;;90.07;32.35;;;6.20;99.90;;;;;;4851248;29;20373;-85
2022/01/14 02:51:45;;;;;;;97.82;33.85;;;6.30;99.90;;;;;;4845298;29;20037;-84
2022/01/14 02:54:14;;;;;;;99.78;33.00;;;6.20;99.90;;;;;;4845528;29;20073;-84
2022/01/14 02:56:43;;;;;;;100.05;33.72;;;6.20;99.90;;;;;;4862659;29;20097;-85
2022/01/14 02:59:10;;;;;;;88.25;31.95;;;6.20;99.90;;;;;;4864018;29;20052;-85
2022/01/14 03:01:37;;;;;;;94.07;31.20;;;6.30;99.90;;;;;;4863119;29;20131;-85
2022/01/14 03:04:04;;;;;;;91.38;32.05;;;6.30;99.90;;;;;;4862337;29;20092;-85
2022/01/14 03:06:31;;;;;;;93.50;30.58;;;6.30;99.90;;;;;;4863553;29;20132;-85
2022/01/14 03:08:57;;;;;;;100.53;33.22;;;6.30;99.90;;;;;;4863244;29;20056;-84
2022/01/14 03:11:55;;;;;;;89.05;31.77;;;6.20;99.90;;;;;;4863545;29;20088;-85
2022/01/14 03:14:24;;;;;;;94.10;32.05;;;6.20;99.90;;;;;;4857206;29;20068;-85
2022/01/14 03:16:52;;;;;;;95.70;31.48;;;6.20;99.90;;;;;;4882372;29;20071;-85
2022/01/14 03:19:22;;;;;;;90.97;32.03;;;6.20;99.90;;;;;;4878973;29;20084;-85
2022/01/14 03:21:51;;;;;;;82.88;29.35;;;6.10;99.90;;;;;;4878434;29;20131;-84
2022/01/14 03:27:00;;;;;;;87.65;28.00;;;6.10;99.90;;;;;;4894263;29;20044;-84
2022/01/14 03:29:26;;;;;;;103.45;30.85;;;6.20;99.90;;;;;;4863063;29;20104;-85
2022/01/14 03:31:52;;;;;;;90.82;30.17;;;6.20;99.90;;;;;;4862005;29;20045;-84
2022/01/14 03:34:17;;;;;;;92.47;30.40;;;6.20;99.90;;;;;;4878679;29;20041;-85
2022/01/14 03:36:43;;;;;;;106.82;30.50;;;6.20;99.90;;;;;;4862915;29;20501;-84
2022/01/14 03:39:09;;;;;;;94.85;29.15;;;6.20;99.90;;;;;;4863077;29;20053;-85
2022/01/14 03:41:34;;;;;;;97.65;29.73;;;6.20;99.90;;;;;;4877988;29;20088;-84
2022/01/14 03:44:00;;;;;;;87.75;28.90;;;6.20;99.90;;;;;;4862317;29;20052;-84
2022/01/14 03:46:26;;;;;;;95.93;30.05;;;6.20;99.90;;;;;;4862426;29;20414;-84
2022/01/14 03:48:52;;;;;;;91.65;30.90;;;6.10;99.90;;;;;;4878035;29;20055;-85
2022/01/14 03:51:19;;;;;;;95.95;31.25;;;6.10;99.90;;;;;;4849690;29;20066;-84
2022/01/14 03:53:46;;;;;;;94.78;30.92;;;6.10;99.90;;;;;;4843933;29;20052;-85
2022/01/14 03:56:12;;;;;;;97.40;30.75;;;6.00;99.90;;;;;;4844294;29;20044;-85
2022/01/14 03:58:37;;;;;;;87.80;30.17;;;6.00;99.90;;;;;;4859369;29;20526;-84
2022/01/14 04:01:03;;;;;;;88.97;30.02;;;6.10;99.90;;;;;;4854231;29;20052;-84
2022/01/14 04:03:28;;;;;;;82.95;29.02;;;6.00;99.90;;;;;;4862547;29;20041;-84
2022/01/14 04:05:54;;;;;;;85.68;29.02;;;6.10;99.90;;;;;;4862250;29;20127;-85
2022/01/14 04:08:19;;;;;;;84.72;28.42;;;6.10;99.90;;;;;;4862513;29;20064;-85
2022/01/14 04:10:47;;;;;;;80.00;28.67;;;6.10;99.90;;;;;;4858921;29;20045;-85
2022/01/14 04:13:19;;;;;;;86.93;29.70;;;6.10;99.90;;;;;;4874843;29;20056;-84
2022/01/14 04:15:47;;;;;;;83.38;29.20;;;6.10;99.90;;;;;;4874209;29;20072;-84
2022/01/14 04:18:15;;;;;;;87.97;29.30;;;6.10;99.90;;;;;;4875571;29;20475;-85
2022/01/14 04:20:43;;;;;;;85.05;29.58;;;6.10;99.90;;;;;;4861876;29;20092;-85
2022/01/14 04:23:13;;;;;;;92.97;30.10;;;6.10;99.90;;;;;;4862067;29;20415;-85
2022/01/14 04:25:40;;;;;;;83.15;29.98;;;6.00;99.90;;;;;;4862580;29;20083;-84
2022/01/14 04:28:08;;;;;;;98.25;32.67;;;6.00;99.90;;;;;;4862081;29;20551;-85
2022/01/14 04:30:34;;;;;;;90.50;31.17;;;6.00;99.90;;;;;;4870620;29;20076;-85
2022/01/14 04:33:00;;;;;;;86.97;29.48;;;6.00;99.90;;;;;;4853810;29;20044;-85
2022/01/14 04:35:26;;;;;;;89.75;30.25;;;5.90;99.90;;;;;;4862027;29;20082;-84
2022/01/14 04:37:53;;;;;;;85.18;30.55;;;6.10;99.90;;;;;;4862279;29;20084;-84
2022/01/14 04:40:19;;;;;;;87.47;29.80;;;6.00;99.90;;;;;;4877208;29;20036;-85
2022/01/14 04:42:45;;;;;;;85.80;30.38;;;5.90;99.90;;;;;;4861512;29;20750;-85
2022/01/14 04:45:25;;;;;;;77.03;29.17;;;5.90;99.90;;;;;;4877442;29;20419;-85
2022/01/14 04:47:50;;;;;;;78.90;29.95;;;6.00;99.90;;;;;;4861959;29;20108;-85
2022/01/14 04:50:18;;;;;;;80.13;29.83;;;6.10;99.90;;;;;;4861452;29;20487;-85
2022/01/14 04:52:45;;;;;;;79.90;29.27;;;6.00;99.90;;;;;;4876879;29;20112;-84
2022/01/14 04:55:13;;;;;;;81.13;29.52;;;6.10;99.90;;;;;;4876407;29;20134;-85
2022/01/14 04:57:39;;;;;;;81.50;28.35;;;6.10;99.90;;;;;;4877178;29;20056;-84
2022/01/14 05:00:14;;;;;;;101.28;30.85;;;6.10;99.90;;;;;;4874474;29;20156;-84
2022/01/14 05:02:40;;;;;;;81.13;29.15;;;6.20;99.90;;;;;;4858514;29;20072;-85
2022/01/14 05:05:07;;;;;;;85.20;30.05;;;6.10;99.90;;;;;;4842918;29;20053;-85
2022/01/14 05:07:34;;;;;;;90.10;30.40;;;6.10;99.90;;;;;;4858144;29;20303;-84
2022/01/14 05:12:32;;;;;;;73.95;28.92;;;6.30;99.90;;;;;;4878049;29;20052;-85
2022/01/14 05:14:58;;;;;;;76.35;28.55;;;6.20;99.90;;;;;;4877040;29;20075;-84
2022/01/14 05:17:23;;;;;;;76.03;27.10;;;6.10;99.90;;;;;;4876912;29;20077;-84
2022/01/14 05:19:50;;;;;;;77.40;27.60;;;6.10;99.90;;;;;;4860476;29;20051;-84
2022/01/14 05:22:17;;;;;;;81.95;29.90;;;6.20;99.90;;;;;;4860480;29;20037;-84
2022/01/14 05:24:43;;;;;;;76.20;28.13;;;6.20;99.90;;;;;;4861005;29;20050;-84
2022/01/14 05:27:09;;;;;;;71.57;27.67;;;6.10;99.90;;;;;;4860976;29;20043;-84
2022/01/14 05:29:34;;;;;;;75.43;27.05;;;6.20;99.90;;;;;;4876782;29;20044;-83
2022/01/14 05:32:03;;;;;;;79.15;29.00;;;6.20;99.90;;;;;;4870885;29;20566;-84
2022/01/14 05:34:34;;;;;;;73.18;28.52;;;6.10;99.90;;;;;;4857719;29;20041;-84
2022/01/14 05:37:01;;;;;;;88.65;31.50;;;6.20;99.90;;;;;;4871770;29;20037;-84
2022/01/14 05:39:27;;;;;;;79.80;28.35;;;6.00;99.90;;;;;;4847440;29;20484;-84
2022/01/14 05:41:53;;;;;;;81.78;30.30;;;6.00;99.90;;;;;;4856032;29;20124;-84
2022/01/14 05:44:19;;;;;;;81.22;30.27;;;6.00;99.90;;;;;;4858155;29;20045;-84
2022/01/14 05:46:45;;;;;;;78.18;30.58;;;6.00;99.90;;;;;;4876439;29;20558;-84
2022/01/14 05:49:11;;;;;;;72.03;27.92;;;5.90;99.90;;;;;;4855454;29;20556;-84
2022/01/14 05:51:37;;;;;;;75.38;28.77;;;6.00;99.90;;;;;;4875470;29;20049;-84
2022/01/14 05:54:03;;;;;;;78.68;29.77;;;6.00;99.90;;;;;;4876136;29;20088;-85
2022/01/14 05:56:29;;;;;;;68.38;26.65;;;6.00;99.90;;;;;;4860705;29;20051;-84
2022/01/14 05:58:54;;;;;;;71.35;28.98;;;6.00;99.90;;;;;;4854928;29;20451;-83
2022/01/14 06:01:20;;;;;;;79.35;34.38;;;6.10;99.90;;;;;;4860805;29;20076;-85
2022/01/14 06:03:46;;;;;;;74.53;32.45;;;6.00;99.90;;;;;;4862879;29;20045;-85
2022/01/14 06:06:12;;;;;;;85.32;32.40;;;5.90;99.90;;;;;;4874401;29;20582;-85
2022/01/14 06:08:37;;;;;;;84.22;32.38;;;5.90;99.90;;;;;;4858315;29;20061;-84
2022/01/14 06:11:03;;;;;;;81.65;30.60;;;5.90;99.90;;;;;;4856100;29;20057;-85
2022/01/14 06:13:28;;;;;;;87.05;31.33;;;5.90;99.90;;;;;;4863630;29;20033;-85
2022/01/14 06:15:54;;;;;;;72.65;30.02;;;5.80;99.90;;;;;;4878124;29;20702;-84
2022/01/14 06:18:20;;;;;;;91.68;33.47;;;5.70;99.90;;;;;;4861243;29;20049;-84
2022/01/14 06:20:46;;;;;;;70.57;30.42;;;5.70;99.90;;;;;;4864133;29;20051;-85
2022/01/14 06:23:12;;;;;;;76.75;29.80;;;5.70;99.90;;;;;;4879369;29;20127;-85
2022/01/14 06:25:38;;;;;;;83.25;33.42;;;5.70;99.90;;;;;;4876529;29;20140;-85
2022/01/14 06:28:04;;;;;;;78.68;30.67;;;5.70;99.90;;;;;;4860910;29;20502;-85
2022/01/14 06:30:30;;;;;;;79.68;31.58;;;5.60;99.90;;;;;;4861031;29;20437;-85
2022/01/14 06:32:56;;;;;;;82.40;31.90;;;5.60;99.90;;;;;;4874554;29;20059;-87
2022/01/14 06:35:22;;;;;;;77.22;30.42;;;5.50;99.90;;;;;;4864284;29;20036;-85
2022/01/14 06:37:49;;;;;;;81.28;31.52;;;5.60;99.90;;;;;;4864293;29;20135;-85
2022/01/14 06:40:15;;;;;;;81.45;31.35;;;5.60;99.90;;;;;;4877526;29;20096;-85
2022/01/14 06:42:41;;;;;;;75.50;31.65;;;5.50;99.90;;;;;;4866778;29;20048;-86
2022/01/14 06:45:08;;;;;;;81.28;32.20;;;5.60;99.90;;;;;;4873653;29;20041;-86
2022/01/14 06:47:33;;;;;;;77.53;31.98;;;5.60;99.90;;;;;;4858509;29;20095;-86
2022/01/14 06:49:59;;;;;;;84.15;32.80;;;5.50;99.90;;;;;;4867608;29;20112;-86
2022/01/14 06:52:25;;;;;;;78.82;29.50;;;5.50;99.90;;;;;;4862755;29;20044;-85
2022/01/14 06:54:50;;;;;;;78.32;31.83;;;5.60;99.90;;;;;;4858701;29;20084;-86
2022/01/14 06:57:17;;;;;;;82.70;32.85;;;5.60;99.90;;;;;;4876325;29;20048;-85
2022/01/14 06:59:42;;;;;;;74.95;31.38;;;5.50;99.90;;;;;;4861901;29;20444;-85
2022/01/14 07:02:10;;;;;;;84.45;33.17;;;5.50;99.90;;;;;;4862246;29;20048;-85
2022/01/14 07:04:36;;;;;;;87.45;32.83;;;5.50;99.90;;;;;;4869238;29;20045;-85
2022/01/14 07:07:02;;;;;;;80.43;32.00;;;5.50;99.90;;;;;;4852588;29;20069;-85
2022/01/14 07:09:30;;;;;;;81.15;30.38;;;5.50;99.90;;;;;;4858810;29;20045;-87
2022/01/14 07:11:58;;;;;;;80.88;31.45;;;5.60;99.90;;;;;;4844801;29;20078;-86
2022/01/14 07:14:24;;;;;;;74.53;31.95;;;5.60;99.90;;;;;;4858345;29;20149;-86
2022/01/14 07:16:50;;;;;;;71.20;30.30;;;5.60;99.90;;;;;;4851115;29;20381;-86
2022/01/14 07:19:19;;;;;;;69.88;30.73;;;5.70;99.90;;;;;;4858184;29;20041;-87
2022/01/14 07:21:44;;;;;;;75.20;31.02;;;5.70;99.90;;;;;;4866028;29;20048;-86
2022/01/14 07:24:12;;;;;;;71.35;31.55;;;5.70;99.90;;;;;;4863876;29;20045;-87
2022/01/14 07:26:38;;;;;;;75.53;31.55;;;5.70;99.90;;;;;;4859586;29;20056;-87
2022/01/14 07:29:04;;;;;;;71.43;29.95;;;5.70;99.90;;;;;;4851330;29;20411;-87
2022/01/14 07:31:29;;;;;;;74.57;30.10;;;5.80;99.90;;;;;;4851134;29;20041;-86
2022/01/14 07:33:55;;;;;;;72.75;30.88;;;5.80;99.90;;;;;;4856020;29;20137;-86
2022/01/14 07:36:20;;;;;;;68.70;30.55;;;5.80;99.90;;;;;;4851097;29;20053;-87
2022/01/14 07:38:46;;;;;;;73.57;32.25;;;5.80;99.90;;;;;;4873911;29;20500;-87
2022/01/14 07:41:11;;;;;;;77.38;31.52;;;5.90;99.90;;;;;;4852373;29;20044;-87
2022/01/14 07:43:37;;;;;;;68.82;30.38;;;5.80;99.90;;;;;;4855057;29;20048;-87
2022/01/14 07:46:05;;;;;;;73.53;32.17;;;5.80;99.90;;;;;;4857875;29;20377;-87
2022/01/14 07:48:31;;;;;;;64.57;29.63;;;5.80;99.90;;;;;;4858037;29;20049;-88
2022/01/14 07:50:56;;;;;;;64.22;30.40;;;5.90;99.90;;;;;;4852028;29;20037;-87
2022/01/14 07:53:22;;;;;;;67.40;29.65;;;5.80;99.90;;;;;;4856427;29;20089;-88
2022/01/14 07:55:48;;;;;;;66.68;28.27;;;5.90;99.90;;;;;;4857579;29;20053;-88
2022/01/14 07:58:14;;;;;;;73.35;31.17;;;5.90;99.90;;;;;;4851799;29;20055;-88
2022/01/14 08:00:41;;;;;;;69.55;30.73;;;5.90;99.90;;;;;;4860138;29;20093;-88
2022/01/14 08:03:07;;;;;;;65.50;29.10;;;5.90;99.90;;;;;;4856534;29;20037;-87
2022/01/14 08:05:34;;;;;;;74.93;31.42;;;5.80;99.90;;;;;;4874094;29;20104;-87
2022/01/14 08:08:04;;;;;;;74.22;31.45;;;5.80;99.90;;;;;;4862213;29;20048;-87
2022/01/14 08:10:33;;;;;;;74.07;30.27;;;5.80;99.90;;;;;;4871680;29;20045;-88
2022/01/14 08:12:59;;;;;;;74.82;30.25;;;5.80;99.90;;;;;;4857029;29;20055;-87
2022/01/14 08:15:25;;;;;;;70.93;30.25;;;5.90;99.90;;;;;;4862499;29;20048;-87
2022/01/14 08:17:51;;;;;;;74.20;30.83;;;5.90;99.90;;;;;;4861916;29;20048;-86
2022/01/14 08:20:16;;;;;;;79.45;30.52;;;5.80;99.90;;;;;;4860929;29;20184;-87
2022/01/14 08:22:42;;;;;;;77.57;30.90;;;5.80;99.90;;;;;;4859648;29;20049;-87
2022/01/14 08:25:09;;;;;;;66.63;29.80;;;5.80;99.90;;;;;;4862290;29;20069;-88
2022/01/14 08:27:35;;;;;;;66.80;30.23;;;5.80;99.90;;;;;;4846419;29;20053;-87
2022/01/14 08:30:02;;;;;;;65.15;28.77;;;5.80;99.90;;;;;;4851405;29;20944;-88
2022/01/14 08:32:27;;;;;;;75.65;28.38;;;5.80;99.90;;;;;;4849456;29;20087;-87
2022/01/14 08:34:53;;;;;;;72.85;29.70;;;5.80;99.90;;;;;;4876399;29;20139;-87
2022/01/14 08:37:19;;;;;;;68.70;28.48;;;5.80;99.90;;;;;;4876648;29;20440;-87
2022/01/14 08:39:44;;;;;;;70.53;29.00;;;5.80;99.90;;;;;;4860373;29;20051;-86
2022/01/14 08:42:12;;;;;;;54.00;25.80;;;5.80;99.90;;;;;;4876376;29;20119;-86
2022/01/14 08:44:37;;;;;;;60.40;27.77;;;5.80;99.90;;;;;;4858771;29;20051;-87
2022/01/14 08:47:08;;;;;;;61.50;26.55;;;5.90;99.90;;;;;;4860894;29;20361;-86
2022/01/14 08:49:34;;;;;;;62.00;25.77;;;5.80;99.90;;;;;;4868764;29;20473;-87
2022/01/14 08:51:59;;;;;;;59.60;26.05;;;5.90;99.90;;;;;;4866868;29;20076;-86
2022/01/14 08:54:25;;;;;;;63.35;26.77;;;5.90;99.90;;;;;;4876902;29;20086;-86
2022/01/14 08:56:50;;;;;;;62.10;26.33;;;5.90;99.90;;;;;;4859010;29;20055;-86
2022/01/14 08:59:17;;;;;;;59.78;25.92;;;5.90;99.90;;;;;;4858137;29;20072;-86
2022/01/14 09:01:43;;;;;;;54.60;25.08;;;5.90;99.90;;;;;;4880912;29;20052;-86
2022/01/14 09:04:09;;;;;;;56.85;25.45;;;6.00;99.90;;;;;;4846304;29;20051;-86
2022/01/14 09:06:35;;;;;;;61.88;24.30;;;6.00;99.90;;;;;;4859991;29;20045;-86
2022/01/14 09:09:00;;;;;;;54.95;24.15;;;6.00;99.90;;;;;;4857111;29;20096;-86
2022/01/14 09:11:26;;;;;;;58.42;23.85;;;6.00;99.90;;;;;;4868398;29;20041;-85
2022/01/14 09:13:52;;;;;;;60.22;25.10;;;6.10;99.90;;;;;;4860297;29;20049;-84
2022/01/14 09:16:20;;;;;;;61.03;24.10;;;6.10;99.90;;;;;;4869070;29;20567;-84
2022/01/14 09:18:47;;;;;;;66.82;25.65;;;6.10;99.90;;;;;;4852779;29;20045;-85
2022/01/14 09:21:14;;;;;;;51.35;24.00;;;6.20;99.90;;;;;;4858630;29;20059;-84
2022/01/14 09:23:39;;;;;;;57.25;23.92;;;6.20;99.90;;;;;;4869857;29;20049;-85
2022/01/14 09:26:05;;;;;;;60.38;24.75;;;6.20;99.90;;;;;;4883104;29;20107;-85
2022/01/14 09:28:33;;;;;;;53.47;24.13;;;6.20;99.90;;;;;;4863621;29;20048;-85
2022/01/14 09:30:58;;;;;;;56.65;24.25;;;6.30;99.90;;;;;;4875187;29;20045;-84
2022/01/14 09:33:24;;;;;;;58.40;23.90;;;6.30;99.90;;;;;;4859234;29;20063;-85
2022/01/14 09:35:49;;;;;;;55.53;23.73;;;6.40;99.90;;;;;;4853766;29;20524;-85
2022/01/14 09:38:16;;;;;;;48.88;23.40;;;6.40;99.90;;;;;;4865663;29;20534;-85
2022/01/14 09:40:44;;;;;;;57.53;23.73;;;6.50;99.90;;;;;;4857685;29;20120;-85
2022/01/14 09:43:13;;;;;;;55.83;23.45;;;6.50;99.90;;;;;;4864417;29;20100;-85
2022/01/14 09:45:39;;;;;;;61.90;25.02;;;6.60;99.90;;;;;;4864503;29;20048;-85
2022/01/14 09:48:05;;;;;;;55.58;23.92;;;6.50;99.90;;;;;;4863917;29;20411;-86
2022/01/14 09:50:31;;;;;;;64.40;24.08;;;6.60;99.90;;;;;;4859984;29;20064;-86
2022/01/14 09:52:57;;;;;;;49.55;23.52;;;6.70;99.90;;;;;;4856282;29;20504;-86
2022/01/14 09:55:26;;;;;;;50.80;20.92;;;6.70;99.90;;;;;;4856637;29;20065;-86
2022/01/14 09:57:54;;;;;;;49.67;20.92;;;6.70;99.90;;;;;;4863870;29;20459;-86
2022/01/14 10:00:21;;;;;;;52.55;21.30;;;6.70;99.90;;;;;;4861553;29;20072;-86
2022/01/14 10:02:49;;;;;;;46.67;22.50;;;6.70;99.90;;;;;;4860826;29;20629;-86
2022/01/14 10:05:37;;;;;;;44.72;20.02;;;6.70;99.90;;;;;;4862646;29;20105;-86
2022/01/14 10:08:18;;;;;;;52.95;20.17;;;6.80;99.90;;;;;;4865290;29;20108;-87
2022/01/14 10:10:46;;;;;;;52.17;20.88;;;6.90;99.90;;;;;;4864044;29;20045;-86
2022/01/14 10:13:14;;;;;;;38.80;18.77;;;6.90;99.90;;;;;;4879146;29;20096;-86
2022/01/14 10:16:06;;;;;;;49.25;18.75;;;6.90;99.90;;;;;;4863334;29;20105;-86
2022/01/14 10:18:33;;;;;;;40.60;17.92;;;7.00;99.90;;;;;;4855611;29;20051;-87
2022/01/14 10:21:05;;;;;;;44.47;17.10;;;7.00;99.90;;;;;;4862563;29;20044;-87
2022/01/14 10:23:43;;;;;;;37.63;16.10;;;7.00;99.90;;;;;;4864130;29;20116;-86
2022/01/14 10:26:11;;;;;;;38.65;15.32;;;7.00;99.90;;;;;;4856296;29;20045;-86
2022/01/14 10:28:37;;;;;;;38.67;16.90;;;7.00;99.90;;;;;;4859948;29;20567;-86
2022/01/14 10:31:03;;;;;;;38.35;14.20;;;7.00;99.90;;;;;;4877382;29;20105;-87
2022/01/14 10:33:29;;;;;;;31.48;16.15;;;7.00;99.90;;;;;;4866986;29;20040;-87
2022/01/14 10:35:55;;;;;;;30.77;13.70;;;7.10;99.90;;;;;;4863813;29;20045;-86
2022/01/14 10:38:23;;;;;;;31.75;13.32;;;7.10;99.90;;;;;;4888034;29;20096;-87
2022/01/14 10:40:50;;;;;;;25.63;12.60;;;7.10;99.90;;;;;;4874640;29;20105;-87
2022/01/14 10:43:21;;;;;;;30.65;12.20;;;7.10;99.90;;;;;;4854196;29;20112;-87
2022/01/14 10:45:47;;;;;;;34.85;12.88;;;7.10;99.90;;;;;;4878525;29;20052;-87
2022/01/14 10:48:28;;;;;;;30.63;11.73;;;7.10;99.90;;;;;;4863475;29;20092;-87
2022/01/14 10:51:05;;;;;;;25.10;11.65;;;7.10;99.90;;;;;;4876534;29;20056;-87
2022/01/14 10:53:38;;;;;;;30.00;11.23;;;7.20;99.90;;;;;;4863531;29;20045;-88
2022/01/14 10:56:06;;;;;;;26.45;11.80;;;7.20;99.90;;;;;;4864362;29;20132;-88
2022/01/14 10:58:37;;;;;;;30.92;11.40;;;7.20;99.90;;;;;;4852182;29;20404;-87
2022/01/14 11:01:11;;;;;;;29.70;11.40;;;7.20;99.90;;;;;;4848673;29;20083;-86
2022/01/14 11:03:48;;;;;;;23.30;10.73;;;7.20;99.90;;;;;;4847319;29;20617;-86
2022/01/14 11:06:25;;;;;;;30.08;11.05;;;7.20;99.90;;;;;;4845370;29;20140;-86
2022/01/14 11:09:00;;;;;;;29.27;10.35;;;7.20;99.90;;;;;;4858546;29;20057;-86
2022/01/14 11:11:32;;;;;;;28.60;10.82;;;7.20;99.90;;;;;;4886781;29;20053;-87
2022/01/14 11:13:58;;;;;;;21.95;9.80;;;7.30;99.90;;;;;;4860505;29;20051;-87
2022/01/14 11:16:25;;;;;;;29.50;10.38;;;7.40;99.90;;;;;;4861024;29;20049;-86
2022/01/14 11:18:51;;;;;;;25.70;10.65;;;7.30;99.90;;;;;;4877918;29;20052;-87
2022/01/14 11:24:04;;;;;;;20.23;9.55;;;7.30;99.90;;;;;;4860142;29;20072;-86
2022/01/14 11:26:39;;;;;;;26.30;10.40;;;7.30;99.90;;;;;;4874185;29;20048;-86
2022/01/14 11:29:12;;;;;;;26.02;10.02;;;7.40;99.90;;;;;;4875332;29;20092;-87
2022/01/14 11:31:39;;;;;;;19.93;10.13;;;7.30;99.90;;;;;;4876266;29;20044;-86
2022/01/14 11:34:31;;;;;;;25.48;9.52;;;7.30;99.90;;;;;;4875929;29;20292;-86
2022/01/14 11:36:59;;;;;;;30.08;10.10;;;7.30;99.90;;;;;;4855633;29;20060;-85
2022/01/14 11:39:28;;;;;;;29.60;10.20;;;7.30;99.90;;;;;;4857946;29;20044;-86
2022/01/14 11:41:56;;;;;;;30.63;10.02;;;7.30;99.90;;;;;;4860438;29;20095;-85
2022/01/14 11:44:54;;;;;;;21.92;9.90;;;7.30;99.90;;;;;;4860893;29;20516;-86
2022/01/14 11:47:27;;;;;;;33.17;10.02;;;7.30;99.90;;;;;;4856569;29;20045;-86
2022/01/14 11:49:55;;;;;;;23.63;9.40;;;7.30;99.90;;;;;;4860621;29;20503;-85
2022/01/14 11:52:37;;;;;;;22.52;8.73;;;7.30;99.90;;;;;;4862213;29;20135;-86
2022/01/14 11:55:22;;;;;;;23.50;8.18;;;7.30;99.90;;;;;;4873701;29;20059;-86
2022/01/14 11:57:52;;;;;;;20.00;8.07;;;7.30;99.90;;;;;;4858523;29;20127;-86
2022/01/14 12:00:27;;;;;;;23.90;9.30;;;7.30;99.90;;;;;;4877256;29;20052;-86
2022/01/14 12:02:53;;;;;;;21.63;8.43;;;7.30;99.90;;;;;;4863411;29;20048;-87
2022/01/14 12:05:22;;;;;;;23.67;8.25;;;7.30;99.90;;;;;;4862048;29;20045;-86
2022/01/14 12:08:03;;;;;;;22.52;7.82;;;7.30;99.90;;;;;;4861536;29;20070;-86
2022/01/14 12:10:34;;;;;;;25.75;8.43;;;7.30;99.90;;;;;;4857089;29;20085;-86
2022/01/14 12:13:23;;;;;;;22.65;9.13;;;7.30;99.90;;;;;;4853187;29;20079;-86
2022/01/14 12:15:57;;;;;;;21.60;8.10;;;7.40;99.90;;;;;;4877705;29;20055;-87
2022/01/14 12:18:57;;;;;;;22.65;7.88;;;7.40;99.90;;;;;;4877175;29;20064;-87
2022/01/14 12:21:41;;;;;;;20.85;8.30;;;7.40;99.90;;;;;;4885441;29;20558;-86
2022/01/14 12:26:43;;;;;;;25.77;7.82;;;7.40;99.90;;;;;;4870858;29;20609;-85
2022/01/14 12:29:11;;;;;;;24.33;8.77;;;7.40;99.90;;;;;;4895674;29;20048;-86
2022/01/14 12:32:04;;;;;;;26.08;8.50;;;7.40;99.90;;;;;;4857196;29;20041;-86
2022/01/14 12:34:30;;;;;;;25.17;8.55;;;7.40;99.90;;;;;;4866881;29;20048;-86
2022/01/14 12:36:56;;;;;;;22.45;8.43;;;7.40;99.90;;;;;;4869496;29;20502;-86
2022/01/14 12:39:21;;;;;;;23.98;7.90;;;7.40;99.90;;;;;;4861680;29;20096;-87
2022/01/14 12:41:55;;;;;;;18.88;9.25;;;7.50;99.90;;;;;;4863441;29;20140;-86
2022/01/14 12:44:22;;;;;;;27.17;8.90;;;7.40;99.90;;;;;;4859891;29;20041;-86
2022/01/14 12:49:26;;;;;;;25.45;8.98;;;7.40;99.90;;;;;;4860806;29;20057;-86
2022/01/14 12:52:06;;;;;;;31.20;9.45;;;7.40;99.90;;;;;;4853312;29;20072;-87
2022/01/14 12:54:33;;;;;;;31.08;8.73;;;7.50;99.90;;;;;;4852432;29;20040;-87
2022/01/14 12:56:59;;;;;;;28.63;8.52;;;7.50;99.90;;;;;;4874047;29;20040;-86
2022/01/14 12:59:25;;;;;;;20.50;8.20;;;7.50;99.90;;;;;;4867334;29;20185;-85
2022/01/14 13:01:53;;;;;;;26.48;8.75;;;7.50;99.90;;;;;;4881517;29;20041;-86
2022/01/14 13:04:20;;;;;;;23.88;7.97;;;7.40;99.90;;;;;;4869153;29;20048;-87
2022/01/14 13:06:55;;;;;;;27.67;8.60;;;7.50;99.90;;;;;;4872927;29;20619;-86
2022/01/14 13:09:24;;;;;;;25.30;8.20;;;7.40;99.90;;;;;;4852712;29;20181;-85